createdAt,value
2019-05-13T00:00:53.855Z,1.67
2019-05-13T00:03:23.966Z,7.23
2019-05-13T00:05:53.605Z,3.47
2019-05-13T00:08:24.799Z,1.60
2019-05-13T00:10:54.170Z,1.80
2019-05-13T00:13:23.707Z,1.53
2019-05-13T00:15:54.199Z,1.80
2019-05-13T00:18:23.573Z,1.73
2019-05-13T00:20:54.039Z,1.60
2019-05-13T00:23:23.362Z,1.67
2019-05-13T00:25:51.773Z,1.50
2019-05-13T00:28:20.187Z,1.57
2019-05-13T00:30:48.573Z,1.60
2019-05-13T00:33:16.992Z,1.67
2019-05-13T00:35:45.379Z,1.47
2019-05-13T00:38:14.304Z,1.70
2019-05-13T00:40:44.280Z,2.00
2019-05-13T00:43:14.321Z,1.87
2019-05-13T00:45:44.335Z,1.43
2019-05-13T00:48:14.298Z,1.57
2019-05-13T00:50:44.342Z,1.80
2019-05-13T00:53:13.437Z,1.67
2019-05-13T00:55:44.208Z,1.90
2019-05-13T00:58:13.987Z,1.60
2019-05-13T01:00:44.350Z,1.60
2019-05-13T01:03:14.162Z,1.47
2019-05-13T01:05:44.522Z,1.60
2019-05-13T01:08:14.569Z,1.50
2019-05-13T01:10:45.214Z,1.63
2019-05-13T01:13:13.760Z,1.43
2019-05-13T01:15:44.363Z,1.30
2019-05-13T01:18:14.296Z,1.40
2019-05-13T01:20:43.714Z,1.60
2019-05-13T01:23:14.236Z,1.40
2019-05-13T01:25:44.477Z,1.30
2019-05-13T01:28:13.470Z,1.30
2019-05-13T01:30:43.825Z,1.37
2019-05-13T01:33:14.510Z,1.47
2019-05-13T01:35:44.499Z,1.60
2019-05-13T01:38:13.501Z,1.30
2019-05-13T01:40:44.053Z,1.40
2019-05-13T01:43:14.479Z,1.50
2019-05-13T01:45:44.154Z,2.00
2019-05-13T01:48:14.103Z,1.20
2019-05-13T01:50:48.727Z,1.67
2019-05-13T01:53:17.241Z,1.37
2019-05-13T01:55:45.648Z,1.20
2019-05-13T01:58:14.764Z,1.40
2019-05-13T02:00:44.321Z,1.40
2019-05-13T02:03:14.546Z,1.30
2019-05-13T02:05:44.410Z,1.40
2019-05-13T02:08:14.394Z,1.60
2019-05-13T02:10:50.361Z,1.87
2019-05-13T02:13:18.744Z,1.60
2019-05-13T02:15:47.134Z,1.60
2019-05-13T02:18:15.536Z,1.53
2019-05-13T02:20:44.439Z,1.50
2019-05-13T02:23:14.535Z,1.80
2019-05-13T02:25:43.593Z,1.60
2019-05-13T02:28:13.899Z,1.50
2019-05-13T02:30:45.707Z,1.40
2019-05-13T02:33:14.242Z,1.30
2019-05-13T02:35:43.425Z,1.70
2019-05-13T02:38:23.958Z,1.50
2019-05-13T02:40:44.952Z,1.50
2019-05-13T02:43:13.799Z,1.40
2019-05-13T02:45:43.127Z,1.40
2019-05-13T02:48:12.620Z,1.67
2019-05-13T02:50:44.077Z,1.57
2019-05-13T02:53:13.704Z,1.63
2019-05-13T02:55:43.641Z,1.60
2019-05-13T02:58:12.455Z,1.50
2019-05-13T03:00:44.127Z,1.50
2019-05-13T03:03:12.881Z,1.67
2019-05-13T03:05:42.857Z,1.53
2019-05-13T03:08:12.778Z,1.60
2019-05-13T03:10:43.374Z,1.47
2019-05-13T03:13:13.567Z,1.50
2019-05-13T03:15:52.168Z,1.80
2019-05-13T03:18:22.274Z,1.67
2019-05-13T03:20:52.637Z,1.80
2019-05-13T03:23:22.489Z,1.70
2019-05-13T03:25:53.296Z,1.60
2019-05-13T03:28:22.372Z,1.73
2019-05-13T03:30:56.213Z,1.57
2019-05-13T03:33:27.919Z,1.50
2019-05-13T03:35:55.926Z,1.57
2019-05-13T03:38:23.754Z,1.80
2019-05-13T03:40:54.397Z,1.63
2019-05-13T03:43:24.559Z,1.60
2019-05-13T03:45:54.375Z,1.80
2019-05-13T03:48:23.729Z,1.70
2019-05-13T03:50:53.513Z,1.63
2019-05-13T03:53:23.418Z,1.87
2019-05-13T03:55:54.107Z,1.60
2019-05-13T03:58:23.830Z,2.03
2019-05-13T04:00:52.624Z,1.80
2019-05-13T04:03:22.715Z,1.67
2019-05-13T04:05:52.661Z,1.70
2019-05-13T04:08:22.740Z,1.57
2019-05-13T04:10:52.626Z,1.80
2019-05-13T04:13:27.596Z,1.70
2019-05-13T04:15:56.954Z,1.70
2019-05-13T04:18:25.339Z,2.03
2019-05-13T04:20:54.780Z,1.93
2019-05-13T04:23:24.177Z,1.82
2019-05-13T04:25:53.616Z,1.63
2019-05-13T04:28:22.441Z,2.00
2019-05-13T04:30:52.556Z,2.00
2019-05-13T04:33:23.044Z,1.80
2019-05-13T04:35:53.008Z,1.60
2019-05-13T04:38:22.686Z,1.60
2019-05-13T04:40:52.898Z,1.77
2019-05-13T04:43:23.567Z,1.73
2019-05-13T04:45:52.601Z,1.73
2019-05-13T04:48:22.887Z,1.80
2019-05-13T04:50:53.342Z,1.63
2019-05-13T04:53:22.859Z,1.50
2019-05-13T04:55:52.900Z,1.77
2019-05-13T04:58:24.309Z,1.70
2019-05-13T05:01:23.485Z,1.93
2019-05-13T05:04:11.681Z,1.70
2019-05-13T05:06:42.390Z,1.60
2019-05-13T05:09:28.262Z,1.90
2019-05-13T05:12:12.427Z,1.90
2019-05-13T05:15:03.006Z,2.10
2019-05-13T05:17:42.905Z,1.90
2019-05-13T05:20:25.380Z,1.77
2019-05-13T05:23:17.874Z,1.80
2019-05-13T05:26:15.045Z,1.83
2019-05-13T05:29:21.634Z,1.70
2019-05-13T05:32:07.394Z,2.17
2019-05-13T05:35:07.679Z,1.90
2019-05-13T05:37:52.230Z,1.60
2019-05-13T05:40:31.385Z,1.73
2019-05-13T05:42:56.459Z,1.73
2019-05-13T05:45:24.912Z,1.87
2019-05-13T05:47:55.531Z,2.10
2019-05-13T05:50:23.946Z,1.97
2019-05-13T05:52:54.386Z,2.00
2019-05-13T05:55:25.879Z,1.60
2019-05-13T05:57:56.198Z,2.07
2019-05-13T06:00:24.763Z,1.90
2019-05-13T06:02:56.215Z,1.90
2019-05-13T06:05:26.356Z,1.60
2019-05-13T06:07:54.750Z,1.50
2019-05-13T06:10:23.213Z,1.70
2019-05-13T06:12:52.391Z,2.17
2019-05-13T06:15:22.548Z,1.70
2019-05-13T06:17:51.800Z,2.00
2019-05-13T06:20:21.123Z,1.60
2019-05-13T06:22:51.572Z,1.67
2019-05-13T06:25:23.305Z,1.80
2019-05-13T06:27:51.249Z,1.50
2019-05-13T06:30:21.721Z,1.77
2019-05-13T06:32:52.324Z,1.57
2019-05-13T06:35:21.808Z,1.73
2019-05-13T06:37:52.016Z,1.60
2019-05-13T06:40:21.414Z,1.90
2019-05-13T06:42:52.102Z,1.47
2019-05-13T06:45:21.610Z,1.80
2019-05-13T06:47:52.140Z,1.60
2019-05-13T06:50:21.919Z,2.60
2019-05-13T06:52:51.393Z,1.77
2019-05-13T06:55:21.291Z,1.10
2019-05-13T06:57:51.721Z,1.27
2019-05-13T07:00:21.566Z,1.40
2019-05-13T07:02:51.733Z,1.20
2019-05-13T07:05:22.659Z,1.57
2019-05-13T07:07:51.296Z,1.30
2019-05-13T07:10:21.693Z,1.33
2019-05-13T07:12:51.889Z,1.43
2019-05-13T07:15:22.409Z,1.37
2019-05-13T07:17:51.989Z,1.43
2019-05-13T07:20:22.715Z,1.50
2019-05-13T07:22:53.166Z,1.30
2019-05-13T07:25:22.205Z,1.30
2019-05-13T07:27:51.507Z,1.30
2019-05-13T07:30:23.091Z,1.47
2019-05-13T07:32:52.419Z,1.20
2019-05-13T07:35:22.827Z,1.30
2019-05-13T07:37:51.812Z,1.20
2019-05-13T07:40:22.220Z,1.20
2019-05-13T07:42:52.222Z,1.73
2019-05-13T07:45:21.335Z,1.30
2019-05-13T07:47:51.916Z,1.53
2019-05-13T07:50:21.831Z,1.60
2019-05-13T07:52:51.529Z,1.60
2019-05-13T07:55:22.126Z,1.67
2019-05-13T07:57:51.533Z,1.30
2019-05-13T08:00:21.767Z,1.50
2019-05-13T08:02:52.299Z,1.23
2019-05-13T08:05:22.369Z,1.40
2019-05-13T08:07:51.520Z,1.20
2019-05-13T08:10:21.933Z,1.40
2019-05-13T08:12:51.645Z,1.47
2019-05-13T08:15:22.336Z,1.20
2019-05-13T08:17:52.452Z,1.43
2019-05-13T08:20:22.136Z,1.83
2019-05-13T08:22:52.018Z,1.30
2019-05-13T08:25:22.293Z,1.67
2019-05-13T08:27:51.428Z,1.20
2019-05-13T08:30:22.534Z,1.10
2019-05-13T08:32:52.356Z,1.30
2019-05-13T08:35:22.435Z,1.30
2019-05-13T08:37:52.052Z,1.00
2019-05-13T08:40:23.274Z,1.20
2019-05-13T08:42:51.999Z,1.10
2019-05-13T08:45:22.399Z,1.00
2019-05-13T08:47:51.335Z,1.20
2019-05-13T08:50:22.042Z,1.10
2019-05-13T08:52:51.236Z,1.17
2019-05-13T08:55:21.477Z,1.10
2019-05-13T08:57:52.212Z,1.40
2019-05-13T09:00:28.783Z,1.10
2019-05-13T09:02:57.200Z,1.10
2019-05-13T09:05:25.604Z,1.97
2019-05-13T09:07:54.738Z,1.20
2019-05-13T09:10:23.173Z,1.10
2019-05-13T09:12:52.239Z,1.20
2019-05-13T09:15:22.396Z,1.20
2019-05-13T09:17:51.709Z,1.10
2019-05-13T09:20:21.998Z,1.30
2019-05-13T09:22:51.466Z,1.13
2019-05-13T09:25:21.566Z,1.00
2019-05-13T09:27:51.323Z,1.00
2019-05-13T09:30:22.126Z,1.10
2019-05-13T09:32:51.393Z,1.03
2019-05-13T09:35:22.072Z,1.10
2019-05-13T09:37:51.608Z,1.00
2019-05-13T09:40:22.367Z,0.97
2019-05-13T09:42:54.453Z,1.00
2019-05-13T09:45:21.572Z,1.10
2019-05-13T09:47:52.413Z,0.90
2019-05-13T09:50:29.456Z,1.10
2019-05-13T09:52:51.735Z,1.10
2019-05-13T09:55:26.318Z,1.10
2019-05-13T09:57:52.536Z,1.10
2019-05-13T10:00:21.759Z,1.50
2019-05-13T10:02:51.624Z,1.23
2019-05-13T10:05:22.399Z,1.20
2019-05-13T10:07:50.243Z,1.23
2019-05-13T10:10:18.720Z,1.10
2019-05-13T10:13:07.046Z,1.10
2019-05-13T10:15:17.403Z,1.07
2019-05-13T10:17:45.786Z,1.40
2019-05-13T10:20:14.736Z,1.17
2019-05-13T10:22:43.214Z,1.10
2019-05-13T10:25:14.692Z,1.40
2019-05-13T10:27:43.397Z,1.30
2019-05-13T10:30:14.167Z,1.30
2019-05-13T10:32:42.863Z,1.33
2019-05-13T10:35:11.797Z,1.13
2019-05-13T10:37:41.791Z,1.13
2019-05-13T10:40:11.574Z,1.10
2019-05-13T10:42:40.056Z,1.23
2019-05-13T10:45:08.605Z,1.10
2019-05-13T10:47:37.009Z,1.20
2019-05-13T10:50:07.758Z,1.20
2019-05-13T10:52:36.157Z,1.23
2019-05-13T10:55:06.088Z,1.10
2019-05-13T10:57:34.563Z,1.10
2019-05-13T11:00:04.785Z,1.17
2019-05-13T11:02:33.164Z,1.00
2019-05-13T11:05:03.258Z,1.00
2019-05-13T11:07:32.201Z,0.83
2019-05-13T11:10:02.291Z,1.57
2019-05-13T11:12:33.364Z,0.97
2019-05-13T11:15:02.570Z,1.13
2019-05-13T11:17:33.027Z,1.00
2019-05-13T11:20:03.491Z,1.00
2019-05-13T11:22:32.724Z,1.00
2019-05-13T11:25:02.482Z,0.80
2019-05-13T11:27:32.401Z,1.20
2019-05-13T11:30:05.448Z,1.03
2019-05-13T11:32:31.731Z,1.00
2019-05-13T11:35:01.890Z,1.00
2019-05-13T11:37:32.096Z,0.97
2019-05-13T11:40:02.827Z,1.10
2019-05-13T11:42:32.735Z,1.20
2019-05-13T11:45:00.902Z,0.90
2019-05-13T11:47:31.807Z,1.10
2019-05-13T11:50:01.631Z,1.00
2019-05-13T11:52:31.559Z,1.00
2019-05-13T11:55:02.515Z,1.20
2019-05-13T11:57:31.620Z,0.80
2019-05-13T12:00:02.604Z,0.90
2019-05-13T12:02:32.656Z,1.20
2019-05-13T12:05:03.823Z,1.17
2019-05-13T12:07:32.910Z,1.15
2019-05-13T12:10:02.624Z,1.10
2019-05-13T12:12:34.277Z,1.27
2019-05-13T12:15:26.982Z,0.97
2019-05-13T12:17:33.978Z,0.83
2019-05-13T12:20:02.957Z,0.90
2019-05-13T12:22:31.100Z,1.17
2019-05-13T12:25:01.904Z,1.13
2019-05-13T12:27:31.769Z,1.10
2019-05-13T12:30:02.767Z,0.90
2019-05-13T12:32:32.238Z,1.10
2019-05-13T12:35:03.249Z,1.10
2019-05-13T12:37:30.153Z,1.00
2019-05-13T12:40:02.922Z,0.90
2019-05-13T12:42:33.286Z,1.00
2019-05-13T12:45:09.277Z,0.97
2019-05-13T12:47:30.560Z,1.00
2019-05-13T12:49:58.943Z,1.00
2019-05-13T12:52:27.347Z,1.03
2019-05-13T12:54:55.934Z,1.20
2019-05-13T12:57:24.328Z,1.10
2019-05-13T12:59:52.713Z,1.10
2019-05-13T13:02:22.611Z,1.27
2019-05-13T13:05:10.618Z,1.10
2019-05-13T13:07:21.682Z,1.12
2019-05-13T13:09:53.499Z,1.30
2019-05-13T13:12:33.244Z,1.00
2019-05-13T13:14:54.470Z,1.10
2019-05-13T13:17:24.176Z,1.30
2019-05-13T13:19:54.790Z,1.00
2019-05-13T13:22:25.343Z,1.13
2019-05-13T13:24:55.934Z,1.30
2019-05-13T13:27:46.466Z,1.33
2019-05-13T13:30:02.357Z,1.20
2019-05-13T13:32:24.569Z,1.10
2019-05-13T13:34:54.715Z,1.33
2019-05-13T13:37:22.737Z,1.17
2019-05-13T13:39:55.134Z,1.73
2019-05-13T13:42:21.415Z,1.33
2019-05-13T13:44:53.849Z,1.30
2019-05-13T13:47:23.996Z,1.00
2019-05-13T13:49:53.292Z,1.20
2019-05-13T13:52:22.593Z,1.40
2019-05-13T13:54:58.984Z,1.30
2019-05-13T13:57:25.273Z,1.03
2019-05-13T14:00:16.357Z,1.00
2019-05-13T14:02:25.098Z,1.30
2019-05-13T14:04:54.122Z,1.20
2019-05-13T14:07:31.242Z,1.13
2019-05-13T14:09:51.418Z,1.53
2019-05-13T14:12:21.996Z,1.30
2019-05-13T14:14:52.068Z,1.60
2019-05-13T14:17:22.001Z,1.60
2019-05-13T14:19:52.393Z,1.20
2019-05-13T14:22:21.698Z,1.23
2019-05-13T14:24:51.833Z,1.27
2019-05-13T14:27:22.408Z,1.30
2019-05-13T14:29:52.712Z,1.37
2019-05-13T14:32:22.439Z,1.23
2019-05-13T14:34:52.755Z,1.20
2019-05-13T14:37:22.378Z,1.37
2019-05-13T14:39:50.871Z,1.50
2019-05-13T14:42:19.276Z,1.47
2019-05-13T14:44:47.675Z,1.27
2019-05-13T14:47:16.973Z,1.30
2019-05-13T14:49:45.375Z,1.97
2019-05-13T14:52:13.793Z,1.13
2019-05-13T14:54:42.300Z,1.23
2019-05-13T14:57:14.323Z,1.00
2019-05-13T14:59:41.555Z,1.50
2019-05-13T15:02:11.947Z,1.70
2019-05-13T15:04:41.865Z,1.43
2019-05-13T15:07:12.115Z,1.40
2019-05-13T15:09:42.145Z,1.20
2019-05-13T15:12:10.484Z,1.07
2019-05-13T15:14:40.705Z,1.60
2019-05-13T15:17:09.032Z,1.30
2019-05-13T15:19:37.440Z,1.03
2019-05-13T15:22:06.204Z,1.63
2019-05-13T15:24:34.590Z,1.47
2019-05-13T15:27:02.998Z,1.60
2019-05-13T15:29:31.540Z,1.50
2019-05-13T15:32:02.027Z,1.77
2019-05-13T15:34:31.778Z,1.47
2019-05-13T15:37:01.985Z,1.40
2019-05-13T15:39:31.582Z,1.13
2019-05-13T15:42:02.028Z,1.43
2019-05-13T15:44:32.441Z,1.77
2019-05-13T15:47:03.907Z,1.60
2019-05-13T15:49:32.358Z,1.53
2019-05-13T15:52:01.878Z,1.40
2019-05-13T15:54:32.529Z,1.30
2019-05-13T15:57:02.388Z,1.50
2019-05-13T15:59:30.584Z,1.57
2019-05-13T16:02:01.325Z,1.90
2019-05-13T16:04:29.102Z,1.70
2019-05-13T16:06:57.495Z,1.50
2019-05-13T16:09:25.884Z,1.50
2019-05-13T16:11:54.268Z,1.30
2019-05-13T16:14:22.666Z,1.40
2019-05-13T16:16:51.050Z,1.70
2019-05-13T16:19:19.867Z,1.67
2019-05-13T16:21:51.657Z,1.50
2019-05-13T16:24:21.470Z,1.75
2019-05-13T16:26:52.156Z,1.83
2019-05-13T16:29:22.446Z,1.50
2019-05-13T16:31:51.886Z,1.40
2019-05-13T16:34:22.304Z,1.67
2019-05-13T16:36:53.047Z,1.57
2019-05-13T16:39:21.370Z,1.83
2019-05-13T16:41:51.675Z,1.73
2019-05-13T16:44:22.448Z,1.53
2019-05-13T16:46:51.254Z,1.60
2019-05-13T16:49:21.270Z,1.60
2019-05-13T16:51:51.793Z,1.70
2019-05-13T16:54:22.044Z,1.80
2019-05-13T16:56:51.818Z,1.60
2019-05-13T16:59:21.170Z,1.83
2019-05-13T17:01:51.218Z,1.60
2019-05-13T17:04:21.520Z,1.70
2019-05-13T17:06:50.039Z,1.90
2019-05-13T17:09:18.443Z,2.20
2019-05-13T17:11:46.831Z,1.73
2019-05-13T17:14:15.236Z,1.83
2019-05-13T17:16:43.651Z,1.67
2019-05-13T17:19:12.330Z,1.70
2019-05-13T17:21:41.222Z,1.97
2019-05-13T17:24:12.132Z,1.87
2019-05-13T17:26:41.822Z,1.80
2019-05-13T17:29:11.975Z,1.63
2019-05-13T17:31:41.652Z,1.73
2019-05-13T17:34:12.149Z,1.83
2019-05-13T17:36:41.929Z,1.57
2019-05-13T17:39:12.553Z,1.53
2019-05-13T17:41:41.541Z,1.67
2019-05-13T17:44:11.605Z,1.50
2019-05-13T17:46:41.884Z,1.90
2019-05-13T17:49:11.800Z,2.00
2019-05-13T17:51:42.591Z,1.70
2019-05-13T17:54:11.834Z,1.57
2019-05-13T17:56:40.425Z,1.83
2019-05-13T17:59:11.176Z,1.57
2019-05-13T18:01:41.098Z,1.80
2019-05-13T18:04:11.518Z,2.07
2019-05-13T18:06:41.539Z,1.70
2019-05-13T18:09:11.737Z,1.70
2019-05-13T18:11:41.562Z,1.80
2019-05-13T18:14:11.421Z,1.70
2019-05-13T18:16:43.631Z,1.60
2019-05-13T18:19:12.238Z,1.80
2019-05-13T18:21:42.375Z,1.50
2019-05-13T18:24:11.911Z,1.97
2019-05-13T18:26:41.967Z,1.90
2019-05-13T18:29:12.188Z,1.70
2019-05-13T18:31:42.032Z,1.83
2019-05-13T18:34:12.214Z,1.90
2019-05-13T18:36:42.671Z,1.80
2019-05-13T18:39:12.400Z,1.90
2019-05-13T18:41:41.373Z,1.70
2019-05-13T18:44:12.248Z,1.90
2019-05-13T18:46:41.705Z,1.80
2019-05-13T18:49:11.986Z,1.93
2019-05-13T18:51:42.235Z,2.30
2019-05-13T18:54:16.584Z,1.73
2019-05-13T18:56:46.592Z,1.70
2019-05-13T18:59:15.146Z,1.97
2019-05-13T19:01:43.546Z,1.77
2019-05-13T19:04:11.979Z,2.10
2019-05-13T19:06:42.404Z,1.73
2019-05-13T19:09:11.219Z,1.87
2019-05-13T19:11:42.416Z,1.70
2019-05-13T19:14:12.274Z,1.87
2019-05-13T19:16:42.227Z,1.90
2019-05-13T19:19:13.275Z,2.57
2019-05-13T19:21:41.615Z,2.23
2019-05-13T19:24:11.114Z,2.10
2019-05-13T19:26:41.635Z,1.77
2019-05-13T19:29:11.525Z,1.80
2019-05-13T19:31:41.797Z,1.80
2019-05-13T19:34:12.511Z,1.60
2019-05-13T19:36:40.431Z,1.97
2019-05-13T19:39:11.207Z,1.73
2019-05-13T19:41:38.960Z,1.80
2019-05-13T19:44:07.360Z,2.10
2019-05-13T19:46:35.750Z,1.80
2019-05-13T19:49:04.156Z,2.05
2019-05-13T19:51:32.556Z,2.20
2019-05-13T19:54:01.348Z,2.20
2019-05-13T19:56:31.783Z,2.10
2019-05-13T19:59:01.559Z,1.97
2019-05-13T20:01:32.187Z,1.73
2019-05-13T20:04:02.393Z,2.13
2019-05-13T20:06:35.753Z,1.90
2019-05-13T20:09:05.727Z,2.30
2019-05-13T20:11:34.133Z,2.10
2019-05-13T20:14:02.604Z,2.10
2019-05-13T20:16:32.099Z,2.10
2019-05-13T20:19:01.285Z,2.00
2019-05-13T20:21:31.957Z,2.00
2019-05-13T20:24:00.014Z,1.87
2019-05-13T20:26:28.411Z,2.30
2019-05-13T20:28:56.797Z,2.17
2019-05-13T20:31:25.189Z,2.20
2019-05-13T20:33:53.576Z,2.70
2019-05-13T20:36:22.367Z,2.10
2019-05-13T20:38:51.618Z,2.20
2019-05-13T20:41:22.209Z,2.10
2019-05-13T20:43:52.082Z,2.00
2019-05-13T20:46:22.951Z,2.43
2019-05-13T20:48:51.970Z,2.17
2019-05-13T20:51:21.965Z,2.40
2019-05-13T20:53:51.811Z,2.30
2019-05-13T20:56:21.475Z,2.47
2019-05-13T20:58:51.550Z,2.37
2019-05-13T21:01:20.034Z,2.03
2019-05-13T21:03:48.410Z,2.73
2019-05-13T21:06:16.810Z,2.30
2019-05-13T21:08:45.203Z,2.47
2019-05-13T21:11:13.589Z,2.40
2019-05-13T21:13:41.966Z,2.20
2019-05-13T21:16:11.425Z,2.50
2019-05-13T21:18:42.129Z,2.50
2019-05-13T21:21:11.708Z,2.47
2019-05-13T21:23:41.707Z,2.47
2019-05-13T21:26:13.159Z,2.30
2019-05-13T21:28:41.958Z,2.35
2019-05-13T21:31:11.358Z,2.00
2019-05-13T21:33:39.841Z,2.37
2019-05-13T21:36:08.267Z,2.30
2019-05-13T21:38:36.702Z,2.27
2019-05-13T21:41:05.101Z,2.20
2019-05-13T21:43:33.496Z,2.10
2019-05-13T21:46:02.274Z,2.10
2019-05-13T21:48:32.493Z,2.57
2019-05-13T21:51:01.099Z,2.50
2019-05-13T21:53:32.334Z,2.20
2019-05-13T21:56:02.112Z,2.17
2019-05-13T21:58:31.247Z,2.50
2019-05-13T22:01:01.563Z,2.53
2019-05-13T22:03:33.222Z,2.60
2019-05-13T22:06:01.931Z,2.20
2019-05-13T22:08:32.148Z,2.30
2019-05-13T22:11:01.762Z,2.40
2019-05-13T22:13:31.618Z,2.03
2019-05-13T22:16:01.708Z,2.00
2019-05-13T22:18:31.407Z,2.33
2019-05-13T22:21:01.636Z,2.20
2019-05-13T22:23:32.111Z,2.23
2019-05-13T22:26:01.571Z,2.50
2019-05-13T22:28:31.249Z,2.50
2019-05-13T22:31:01.361Z,3.03
2019-05-13T22:33:32.166Z,2.30
2019-05-13T22:36:01.623Z,2.33
2019-05-13T22:38:32.369Z,2.35
2019-05-13T22:41:01.238Z,2.43
2019-05-13T22:43:32.078Z,2.60
2019-05-13T22:45:59.881Z,2.43
2019-05-13T22:48:28.300Z,1.97
2019-05-13T22:50:56.679Z,2.40
2019-05-13T22:53:25.096Z,2.40
2019-05-13T22:55:53.504Z,2.60
2019-05-13T22:58:22.490Z,2.77
2019-05-13T23:00:51.751Z,3.07
2019-05-13T23:03:20.212Z,2.80
2019-05-13T23:05:48.593Z,2.87
2019-05-13T23:08:16.997Z,3.10
2019-05-13T23:10:45.411Z,2.90
2019-05-13T23:13:13.831Z,3.20
2019-05-13T23:15:42.243Z,3.20
2019-05-13T23:18:11.780Z,3.10
2019-05-13T23:20:41.009Z,3.20
2019-05-13T23:23:11.615Z,3.30
2019-05-13T23:25:40.923Z,3.33
2019-05-13T23:28:11.249Z,3.27
2019-05-13T23:30:41.609Z,3.13
2019-05-13T23:33:11.586Z,3.20
2019-05-13T23:35:41.772Z,2.70
2019-05-13T23:38:10.400Z,3.00
2019-05-13T23:40:38.815Z,3.03
2019-05-13T23:43:07.207Z,3.20
2019-05-13T23:45:35.633Z,3.00
2019-05-13T23:48:04.013Z,3.20
2019-05-13T23:50:32.409Z,3.17
2019-05-13T23:53:00.801Z,3.20
2019-05-13T23:55:29.206Z,3.27
2019-05-13T23:57:57.623Z,3.33
